Time;durP1;ratioP1;P1;durP2;ratioP2;P2;SDS_P1;SDS_P2;PMS_P1;PMS_P2;Temp;Humidity;BMP_temperature;BMP_pressure;BME280_temperature;BME280_humidity;BME280_pressure;Samples;Min_cycle;Max_cycle;Signal;HPM_P1;HPM_P2
2023/02/06 00:01:33;;;;;;;9.23;5.70;;;22.40;37.10;;;;;;6119480;28;83481;-46
2023/02/06 00:04:34;;;;;;;9.55;6.00;;;22.40;37.10;;;;;;6106263;28;80320;-50
2023/02/06 00:07:34;;;;;;;10.65;5.95;;;22.40;37.40;;;;;;6109936;28;80528;-46
2023/02/06 00:10:35;;;;;;;10.13;6.07;;;22.40;36.50;;;;;;6109206;28;80324;-48
2023/02/06 00:13:35;;;;;;;9.57;5.78;;;22.40;36.60;;;;;;6114394;28;80698;-46
2023/02/06 00:16:36;;;;;;;8.20;5.43;;;22.40;36.60;;;;;;6119308;28;80564;-49
2023/02/06 00:19:36;;;;;;;7.93;5.00;;;22.30;36.50;;;;;;6110151;28;81340;-46
2023/02/06 00:22:37;;;;;;;8.27;5.20;;;22.30;36.50;;;;;;6119183;28;80813;-47
2023/02/06 00:25:37;;;;;;;6.93;4.88;;;22.30;36.50;;;;;;6113924;28;81455;-46
2023/02/06 00:28:38;;;;;;;7.22;5.05;;;22.30;36.50;;;;;;6109008;28;80896;-47
2023/02/06 00:31:39;;;;;;;6.80;4.82;;;22.30;36.50;;;;;;6119109;28;80848;-45
2023/02/06 00:34:40;;;;;;;8.48;5.15;;;22.30;36.50;;;;;;6111877;28;80340;-48
2023/02/06 00:37:40;;;;;;;8.50;5.25;;;22.30;36.60;;;;;;6117326;28;80498;-45
2023/02/06 00:40:41;;;;;;;6.47;4.30;;;22.30;36.40;;;;;;6119658;28;81507;-45
2023/02/06 00:43:42;;;;;;;8.23;5.18;;;22.30;36.60;;;;;;6117998;28;83664;-50
2023/02/06 00:46:42;;;;;;;10.40;5.97;;;22.20;36.40;;;;;;6109073;28;80926;-51
2023/02/06 00:49:43;;;;;;;7.93;5.05;;;22.20;36.50;;;;;;6131445;28;83490;-50
2023/02/06 00:52:44;;;;;;;6.50;4.68;;;22.20;36.60;;;;;;6141362;28;80241;-46
2023/02/06 00:55:44;;;;;;;7.53;4.82;;;22.20;36.70;;;;;;6110828;28;80316;-50
2023/02/06 00:58:45;;;;;;;8.15;4.90;;;22.20;36.90;;;;;;6126117;28;80270;-48
2023/02/06 01:01:45;;;;;;;7.15;4.75;;;22.10;37.00;;;;;;6104722;28;82593;-45
2023/02/06 01:04:46;;;;;;;6.88;4.55;;;22.10;37.20;;;;;;6112984;28;80466;-51
2023/02/06 01:07:46;;;;;;;7.68;4.72;;;22.10;37.20;;;;;;6111017;28;81142;-64
2023/02/06 01:10:47;;;;;;;7.18;4.80;;;22.10;37.20;;;;;;6112223;28;80646;-65
2023/02/06 01:13:47;;;;;;;7.40;5.13;;;22.10;37.40;;;;;;6116046;28;82141;-64
2023/02/06 01:16:49;;;;;;;6.40;4.30;;;22.10;37.20;;;;;;6130833;28;81260;-63
2023/02/06 01:19:50;;;;;;;8.50;4.97;;;22.10;37.50;;;;;;6127973;28;81199;-64
2023/02/06 01:22:51;;;;;;;8.45;5.10;;;22.10;37.50;;;;;;6139151;28;84227;-62
2023/02/06 01:25:52;;;;;;;7.70;4.75;;;22.10;37.70;;;;;;6130620;28;80034;-63
2023/02/06 01:28:52;;;;;;;6.57;4.65;;;22.00;37.80;;;;;;6129686;28;84093;-62
2023/02/06 01:31:53;;;;;;;8.57;5.25;;;22.00;37.50;;;;;;6128071;28;83138;-62
2023/02/06 01:34:54;;;;;;;8.25;5.45;;;22.00;37.30;;;;;;6118264;28;81616;-61
2023/02/06 01:37:54;;;;;;;8.73;4.63;;;22.00;37.70;;;;;;6124988;28;80392;-63
2023/02/06 01:40:55;;;;;;;6.65;4.50;;;22.00;37.70;;;;;;6131027;28;80954;-63
2023/02/06 01:43:57;;;;;;;8.60;5.32;;;22.00;37.70;;;;;;6112603;28;80795;-62
2023/02/06 01:46:58;;;;;;;7.55;4.80;;;22.00;37.50;;;;;;6126659;28;81190;-64
2023/02/06 01:49:58;;;;;;;8.57;5.32;;;21.90;37.30;;;;;;6128823;28;80422;-64
2023/02/06 01:52:59;;;;;;;8.77;5.50;;;21.90;37.60;;;;;;6132235;28;80193;-62
2023/02/06 01:55:59;;;;;;;7.28;5.05;;;21.90;37.50;;;;;;6145744;28;81940;-62
2023/02/06 01:59:01;;;;;;;7.03;4.65;;;21.90;37.10;;;;;;6131887;28;82546;-63
2023/02/06 02:02:02;;;;;;;8.05;4.82;;;21.90;37.50;;;;;;6141699;28;80320;-62
2023/02/06 02:05:02;;;;;;;7.97;5.15;;;22.00;37.40;;;;;;6119916;28;80353;-51
2023/02/06 02:08:03;;;;;;;7.00;4.82;;;21.90;37.30;;;;;;6129116;28;81686;-46
2023/02/06 02:11:04;;;;;;;9.73;5.28;;;21.90;37.40;;;;;;6124624;28;80782;-50
2023/02/06 02:14:04;;;;;;;7.88;5.18;;;21.90;37.40;;;;;;6123479;28;80946;-48
2023/02/06 02:17:05;;;;;;;8.55;5.57;;;21.90;37.40;;;;;;6129493;28;81329;-50
2023/02/06 02:20:05;;;;;;;7.57;5.00;;;21.90;37.40;;;;;;6130016;28;80299;-52
2023/02/06 02:23:06;;;;;;;7.80;5.15;;;21.90;37.20;;;;;;6130774;28;80330;-52
2023/02/06 02:26:06;;;;;;;9.18;4.90;;;21.90;37.20;;;;;;6143733;28;80538;-49
2023/02/06 02:29:07;;;;;;;7.85;5.30;;;21.90;37.40;;;;;;6117621;28;80384;-51
2023/02/06 02:32:07;;;;;;;9.10;5.13;;;21.90;37.50;;;;;;6124115;28;81948;-51
2023/02/06 02:35:08;;;;;;;7.32;4.85;;;21.90;37.60;;;;;;6120057;28;86097;-48
2023/02/06 02:38:10;;;;;;;8.50;4.65;;;21.90;37.80;;;;;;6125755;28;80749;-47
2023/02/06 02:41:10;;;;;;;6.85;5.03;;;21.80;37.70;;;;;;6122095;28;80475;-51
2023/02/06 02:44:11;;;;;;;8.52;5.25;;;21.90;37.60;;;;;;6112513;28;83375;-47
2023/02/06 02:47:13;;;;;;;8.23;4.95;;;21.80;37.60;;;;;;6121219;28;83203;-51
2023/02/06 02:50:13;;;;;;;7.43;4.78;;;21.80;37.60;;;;;;6115756;28;80225;-47
2023/02/06 02:53:14;;;;;;;8.80;5.45;;;21.80;37.70;;;;;;6128479;28;83270;-49
2023/02/06 02:56:15;;;;;;;7.72;5.43;;;21.80;37.80;;;;;;6123240;28;80394;-47
2023/02/06 02:59:18;;;;;;;7.45;4.68;;;21.80;37.70;;;;;;6106215;28;80262;-53
2023/02/06 03:02:19;;;;;;;8.40;5.13;;;21.80;38.00;;;;;;6117016;28;83441;-50
2023/02/06 03:05:20;;;;;;;8.15;5.45;;;21.80;37.90;;;;;;6107679;28;81203;-53
2023/02/06 03:08:22;;;;;;;7.75;5.38;;;21.80;38.00;;;;;;6127223;28;83223;-56
2023/02/06 03:11:22;;;;;;;9.07;5.65;;;21.80;38.00;;;;;;6123482;28;81529;-53
2023/02/06 03:14:23;;;;;;;7.22;4.78;;;21.80;38.30;;;;;;6127310;28;81563;-49
2023/02/06 03:17:25;;;;;;;8.73;5.30;;;21.80;38.40;;;;;;6111247;28;82718;-53
2023/02/06 03:20:25;;;;;;;8.48;5.18;;;21.80;38.20;;;;;;6127532;28;83349;-50
2023/02/06 03:23:26;;;;;;;7.18;4.93;;;21.80;38.50;;;;;;6122637;28;80410;-49
2023/02/06 03:26:26;;;;;;;9.02;5.28;;;21.80;38.70;;;;;;6114356;28;82898;-51
2023/02/06 03:29:27;;;;;;;9.52;5.78;;;21.80;38.70;;;;;;6106177;28;80702;-50
2023/02/06 03:32:28;;;;;;;9.90;6.32;;;21.80;38.60;;;;;;6106399;28;81194;-52
2023/02/06 03:35:29;;;;;;;9.55;5.57;;;21.80;38.50;;;;;;6117973;28;80104;-52
2023/02/06 03:38:29;;;;;;;9.00;6.07;;;21.80;38.50;;;;;;6121379;28;80687;-52
2023/02/06 03:41:30;;;;;;;8.85;5.93;;;21.80;38.50;;;;;;6123829;28;81102;-49
2023/02/06 03:44:30;;;;;;;9.52;6.10;;;21.80;38.60;;;;;;6123297;28;80573;-48
2023/02/06 03:47:31;;;;;;;8.55;5.82;;;21.80;38.30;;;;;;6115865;28;80222;-50
2023/02/06 03:50:31;;;;;;;10.20;5.68;;;21.80;38.40;;;;;;6120062;28;80437;-51
2023/02/06 03:53:32;;;;;;;10.38;5.93;;;21.80;38.50;;;;;;6128003;28;80241;-51
2023/02/06 03:56:32;;;;;;;10.35;6.35;;;21.80;38.40;;;;;;6115317;28;80488;-50
2023/02/06 03:59:33;;;;;;;10.88;6.55;;;21.80;38.30;;;;;;6109808;28;84010;-47
2023/02/06 04:02:33;;;;;;;10.95;6.43;;;21.80;38.20;;;;;;6124134;28;81679;-48
2023/02/06 04:05:34;;;;;;;10.80;6.55;;;21.80;38.20;;;;;;6127084;28;80730;-48
2023/02/06 04:08:34;;;;;;;11.63;7.07;;;21.80;38.10;;;;;;6130521;28;82186;-51
2023/02/06 04:11:35;;;;;;;15.25;7.18;;;21.80;38.40;;;;;;6140338;28;80531;-51
2023/02/06 04:14:35;;;;;;;10.10;6.25;;;21.80;38.40;;;;;;6129955;28;80917;-56
2023/02/06 04:17:36;;;;;;;13.35;7.65;;;21.80;39.90;;;;;;6129291;28;80331;-49
2023/02/06 04:20:39;;;;;;;11.43;7.57;;;21.90;38.80;;;;;;6128442;28;80258;-54
2023/02/06 04:23:40;;;;;;;13.73;8.13;;;21.90;37.90;;;;;;6128817;28;80387;-50
2023/02/06 04:26:40;;;;;;;13.18;8.18;;;22.00;37.50;;;;;;6111928;28;80584;-53
2023/02/06 04:29:41;;;;;;;11.90;8.25;;;22.00;37.50;;;;;;6106355;28;80096;-51
2023/02/06 04:32:41;;;;;;;13.90;9.00;;;22.10;37.10;;;;;;6119774;28;80851;-48
2023/02/06 04:35:42;;;;;;;16.02;9.07;;;22.20;37.00;;;;;;6113488;28;80367;-49
2023/02/06 04:38:42;;;;;;;15.75;9.10;;;22.20;36.70;;;;;;6117009;28;82837;-49
2023/02/06 04:41:43;;;;;;;16.20;9.48;;;22.20;36.50;;;;;;6119213;28;84908;-48
2023/02/06 04:44:44;;;;;;;17.10;10.30;;;22.30;36.30;;;;;;6114616;28;81109;-48
2023/02/06 04:47:48;;;;;;;15.15;10.02;;;22.30;36.00;;;;;;6122360;28;83082;-50
2023/02/06 04:50:48;;;;;;;17.45;10.90;;;22.30;36.00;;;;;;6116618;28;84759;-47
2023/02/06 04:53:49;;;;;;;16.83;10.52;;;22.40;35.80;;;;;;6124449;28;83000;-51
2023/02/06 04:56:49;;;;;;;16.50;10.75;;;22.40;35.50;;;;;;6164370;28;83394;-48
2023/02/06 04:59:50;;;;;;;20.80;12.05;;;22.40;35.60;;;;;;6125130;28;83060;-50
2023/02/06 05:02:50;;;;;;;19.13;12.32;;;22.50;35.40;;;;;;6122829;28;83669;-46
2023/02/06 05:05:51;;;;;;;19.20;11.82;;;22.50;35.50;;;;;;6127844;28;83461;-48
2023/02/06 05:08:51;;;;;;;21.48;12.95;;;22.50;35.50;;;;;;6119739;28;83933;-47
2023/02/06 05:11:52;;;;;;;20.65;12.38;;;22.50;35.70;;;;;;6112495;28;83023;-48
2023/02/06 05:14:52;;;;;;;19.00;11.55;;;22.50;35.60;;;;;;6110032;28;83664;-47
2023/02/06 05:17:53;;;;;;;20.48;12.52;;;22.60;36.10;;;;;;6113034;28;85612;-51
2023/02/06 05:20:53;;;;;;;21.08;13.05;;;22.60;35.80;;;;;;6116589;28;84248;-53
2023/02/06 05:23:54;;;;;;;102.10;44.38;;;22.70;36.20;;;;;;6112456;28;83135;-47
2023/02/06 05:26:57;;;;;;;143.73;67.00;;;22.70;36.20;;;;;;6101328;28;84128;-47
2023/02/06 05:29:57;;;;;;;191.98;88.10;;;22.70;36.30;;;;;;6106415;28;83176;-47
2023/02/06 05:32:58;;;;;;;268.23;123.00;;;22.70;36.40;;;;;;6111732;28;84426;-47
2023/02/06 05:35:58;;;;;;;325.10;146.77;;;22.70;36.30;;;;;;6106676;28;85676;-52
2023/02/06 05:38:59;;;;;;;461.40;203.02;;;22.80;37.00;;;;;;6111421;28;87074;-50
2023/02/06 05:41:59;;;;;;;430.33;179.35;;;22.80;36.40;;;;;;6106917;28;87455;-56
2023/02/06 05:45:00;;;;;;;362.60;148.60;;;22.80;36.70;;;;;;6110187;28;85689;-49
2023/02/06 05:48:00;;;;;;;306.70;130.20;;;22.80;36.50;;;;;;6096317;28;88273;-52
2023/02/06 05:51:01;;;;;;;264.27;108.32;;;22.70;36.10;;;;;;6101988;28;85864;-51
2023/02/06 05:54:01;;;;;;;219.88;98.75;;;22.70;36.20;;;;;;6098817;28;86424;-51
2023/02/06 05:57:03;;;;;;;203.55;89.07;;;22.70;36.60;;;;;;6110198;28;85766;-50
2023/02/06 06:00:03;;;;;;;168.13;77.28;;;22.70;36.50;;;;;;6112974;28;84673;-63
2023/02/06 06:03:12;;;;;;;159.70;70.00;;;22.60;36.30;;;;;;6109225;28;83544;-60
2023/02/06 06:06:12;;;;;;;149.30;65.45;;;22.60;36.10;;;;;;6099350;28;83965;-55
2023/02/06 06:09:13;;;;;;;139.02;60.13;;;22.50;35.90;;;;;;6103469;28;84502;-64
2023/02/06 06:12:14;;;;;;;114.97;54.15;;;22.50;36.00;;;;;;6112087;28;84812;-60
2023/02/06 06:15:14;;;;;;;112.07;51.78;;;22.50;35.80;;;;;;6119504;28;83277;-51
2023/02/06 06:18:15;;;;;;;110.60;47.85;;;22.50;35.60;;;;;;6103306;28;83225;-63
2023/02/06 06:21:15;;;;;;;101.32;43.45;;;22.50;35.50;;;;;;6116166;28;88650;-63
2023/02/06 06:24:16;;;;;;;93.25;43.00;;;22.50;35.20;;;;;;6121134;28;82831;-62
2023/02/06 06:27:16;;;;;;;86.10;40.13;;;22.50;35.20;;;;;;6111710;28;86091;-59
2023/02/06 06:30:17;;;;;;;87.90;38.78;;;22.40;34.90;;;;;;6106883;28;84670;-59
2023/02/06 06:33:17;;;;;;;77.18;36.65;;;22.40;35.00;;;;;;6115060;28;83179;-58
2023/02/06 06:36:18;;;;;;;73.00;36.35;;;22.40;34.90;;;;;;6123190;28;84548;-58
2023/02/06 06:39:19;;;;;;;71.93;35.85;;;22.40;34.80;;;;;;6116360;28;86265;-58
2023/02/06 06:42:19;;;;;;;73.82;35.55;;;22.40;34.40;;;;;;6115990;28;83258;-59
2023/02/06 06:45:20;;;;;;;63.00;32.85;;;22.40;34.10;;;;;;6115344;28;86118;-60
2023/02/06 06:48:21;;;;;;;63.35;32.17;;;22.40;34.10;;;;;;6105945;28;85251;-59
2023/02/06 06:51:21;;;;;;;59.85;32.17;;;22.40;34.10;;;;;;6118998;28;83604;-60
2023/02/06 06:54:22;;;;;;;58.83;30.90;;;22.40;33.70;;;;;;6110986;28;82943;-58
2023/02/06 06:57:22;;;;;;;61.30;31.08;;;22.30;34.40;;;;;;6122194;28;84107;-58
2023/02/06 07:00:23;;;;;;;54.00;29.90;;;22.30;33.60;;;;;;6123729;28;84403;-59
2023/02/06 07:03:23;;;;;;;56.00;30.20;;;22.30;33.50;;;;;;6102131;28;86048;-60
2023/02/06 07:06:24;;;;;;;57.45;28.25;;;22.30;33.30;;;;;;6090571;28;85616;-59
2023/02/06 07:09:24;;;;;;;53.97;29.05;;;22.30;33.20;;;;;;6101541;28;88995;-62
2023/02/06 07:12:25;;;;;;;55.00;28.15;;;22.30;33.10;;;;;;6086715;28;83240;-60
2023/02/06 07:15:26;;;;;;;49.88;26.55;;;22.30;32.90;;;;;;6073780;28;85515;-47
2023/02/06 07:18:26;;;;;;;42.33;25.15;;;22.30;32.80;;;;;;6103964;28;82930;-50
2023/02/06 07:21:27;;;;;;;47.33;26.67;;;22.30;32.50;;;;;;6111946;28;86153;-49
2023/02/06 07:24:27;;;;;;;47.03;26.13;;;22.30;32.70;;;;;;6110969;28;83494;-50
2023/02/06 07:27:28;;;;;;;41.67;24.30;;;22.30;32.70;;;;;;6118509;28;87415;-49
2023/02/06 07:30:28;;;;;;;44.67;23.48;;;22.30;32.70;;;;;;6115642;28;83298;-50
2023/02/06 07:33:29;;;;;;;41.30;23.48;;;22.30;32.40;;;;;;6116055;28;85374;-62
2023/02/06 07:36:29;;;;;;;37.17;21.08;;;22.30;32.60;;;;;;6120370;28;83150;-62
2023/02/06 07:39:30;;;;;;;37.25;21.50;;;22.30;32.30;;;;;;6104403;28;83190;-62
2023/02/06 07:42:32;;;;;;;40.97;22.58;;;22.30;32.30;;;;;;6121207;28;83338;-62
2023/02/06 07:45:40;;;;;;;35.50;19.95;;;22.30;32.90;;;;;;6079696;28;85868;-60
2023/02/06 07:48:41;;;;;;;36.03;20.42;;;22.30;31.80;;;;;;6071774;28;86858;-63
2023/02/06 07:51:41;;;;;;;35.22;20.70;;;22.30;32.40;;;;;;6102782;28;87157;-62
2023/02/06 07:54:42;;;;;;;29.65;19.05;;;22.30;32.10;;;;;;6090099;28;85914;-60
2023/02/06 07:57:42;;;;;;;27.98;17.67;;;22.30;32.10;;;;;;6103998;28;83288;-63
2023/02/06 08:00:43;;;;;;;34.78;18.35;;;22.40;32.70;;;;;;6112699;28;84103;-61
2023/02/06 08:03:44;;;;;;;31.70;17.95;;;22.40;32.80;;;;;;6114046;28;88238;-60
2023/02/06 08:06:44;;;;;;;32.38;18.60;;;22.40;32.70;;;;;;6110477;28;84947;-61
2023/02/06 08:09:45;;;;;;;28.48;15.75;;;22.40;32.50;;;;;;6070244;28;84336;-62
2023/02/06 08:12:45;;;;;;;24.60;14.57;;;22.40;32.20;;;;;;6086384;28;83714;-64
2023/02/06 08:15:46;;;;;;;25.98;15.85;;;22.40;31.80;;;;;;6102036;28;83310;-64
2023/02/06 08:18:48;;;;;;;26.45;15.82;;;22.40;31.50;;;;;;6078497;28;88719;-65
2023/02/06 08:21:49;;;;;;;22.90;15.00;;;22.40;31.30;;;;;;6098125;28;82806;-66
2023/02/06 08:24:50;;;;;;;27.13;15.93;;;22.40;31.40;;;;;;6111132;28;84946;-67
2023/02/06 08:27:50;;;;;;;43.80;19.35;;;22.40;31.20;;;;;;6104175;28;84853;-65
2023/02/06 08:30:51;;;;;;;53.15;19.83;;;22.40;30.90;;;;;;6103021;28;83387;-65
2023/02/06 08:33:51;;;;;;;50.72;19.50;;;22.40;30.60;;;;;;6106705;28;87324;-64
2023/02/06 08:36:52;;;;;;;72.78;22.52;;;22.40;30.40;;;;;;6104265;28;84072;-67
2023/02/06 08:39:52;;;;;;;66.82;22.17;;;22.40;30.20;;;;;;6096751;28;85896;-63
2023/02/06 08:42:53;;;;;;;79.78;22.80;;;22.40;30.00;;;;;;6126971;28;85146;-67
2023/02/06 08:45:56;;;;;;;102.28;22.50;;;22.40;30.00;;;;;;6102756;28;84660;-67
2023/02/06 08:48:56;;;;;;;80.53;22.45;;;22.40;30.00;;;;;;6106237;28;82833;-60
2023/02/06 08:51:57;;;;;;;73.93;20.42;;;22.40;29.70;;;;;;6097394;28;84638;-62
2023/02/06 08:54:57;;;;;;;60.55;17.42;;;22.40;30.40;;;;;;6106157;28;83054;-62
2023/02/06 08:57:58;;;;;;;45.10;16.45;;;22.50;29.80;;;;;;6103929;28;84956;-62
2023/02/06 09:00:58;;;;;;;64.30;18.00;;;22.60;29.90;;;;;;6105823;28;84223;-61
2023/02/06 09:03:59;;;;;;;56.05;16.17;;;22.60;30.00;;;;;;6106347;28;83373;-61
2023/02/06 09:06:59;;;;;;;46.35;14.25;;;22.60;30.00;;;;;;6112498;28;83212;-60
2023/02/06 09:10:00;;;;;;;39.92;13.05;;;22.70;29.90;;;;;;6111588;28;85153;-60
2023/02/06 09:13:00;;;;;;;30.30;11.35;;;22.80;30.00;;;;;;6105047;28;82925;-63
2023/02/06 09:16:01;;;;;;;22.45;10.30;;;22.80;30.00;;;;;;6097571;28;83395;-60
2023/02/06 09:19:02;;;;;;;30.90;10.48;;;22.80;30.40;;;;;;6106008;28;85885;-64
2023/02/06 09:22:02;;;;;;;24.30;10.38;;;22.90;31.00;;;;;;6110337;28;84855;-63
2023/02/06 09:25:03;;;;;;;19.83;8.75;;;22.90;33.60;;;;;;6105231;28;83710;-53
2023/02/06 09:28:03;;;;;;;18.60;8.23;;;23.00;35.20;;;;;;6104545;28;83426;-54
2023/02/06 09:31:04;;;;;;;20.98;8.43;;;23.00;36.20;;;;;;6114683;28;80942;-54
2023/02/06 09:34:04;;;;;;;24.17;8.05;;;23.00;36.90;;;;;;6115479;28;80751;-57
2023/02/06 09:37:05;;;;;;;12.05;7.43;;;23.00;37.60;;;;;;6111084;28;80325;-55
2023/02/06 09:40:05;;;;;;;12.88;6.50;;;23.10;37.70;;;;;;6118368;28;84278;-56
2023/02/06 09:43:06;;;;;;;17.48;7.65;;;23.10;38.10;;;;;;6115160;28;80716;-53
2023/02/06 09:46:06;;;;;;;16.83;6.70;;;23.00;38.20;;;;;;6114544;28;82952;-52
2023/02/06 09:49:07;;;;;;;15.02;6.85;;;23.00;38.50;;;;;;6117624;28;81410;-53
2023/02/06 09:52:07;;;;;;;13.90;7.30;;;23.00;39.20;;;;;;6112783;28;84454;-54
2023/02/06 09:55:08;;;;;;;10.55;6.65;;;23.00;38.50;;;;;;6124218;28;83204;-56
2023/02/06 09:58:09;;;;;;;12.85;6.72;;;23.10;38.20;;;;;;6111902;28;81467;-50
2023/02/06 10:01:09;;;;;;;14.02;6.50;;;23.30;38.40;;;;;;6113934;28;80959;-54
2023/02/06 10:04:12;;;;;;;9.77;6.13;;;23.40;38.40;;;;;;6120927;28;80337;-53
2023/02/06 10:07:13;;;;;;;10.43;6.57;;;23.40;38.00;;;;;;6115005;28;81735;-54
2023/02/06 10:10:13;;;;;;;13.02;7.13;;;23.50;37.80;;;;;;6123858;28;80940;-50
2023/02/06 10:13:14;;;;;;;10.75;6.57;;;23.40;37.60;;;;;;6114882;28;82429;-50
2023/02/06 10:16:14;;;;;;;11.25;6.45;;;23.30;37.20;;;;;;6119966;28;85403;-50
2023/02/06 10:19:15;;;;;;;12.73;5.95;;;23.30;36.90;;;;;;6111494;28;81007;-49
2023/02/06 10:22:17;;;;;;;11.68;6.45;;;23.30;36.60;;;;;;6119677;28;80852;-53
2023/02/06 10:25:17;;;;;;;9.85;6.30;;;23.30;36.50;;;;;;6118800;28;81133;-52
2023/02/06 10:28:18;;;;;;;11.15;6.25;;;23.30;36.20;;;;;;6111539;28;81010;-64
2023/02/06 10:31:18;;;;;;;12.70;6.28;;;23.20;36.40;;;;;;6125433;28;86441;-58
2023/02/06 10:34:19;;;;;;;8.48;5.82;;;23.10;37.10;;;;;;6109848;28;81892;-52
2023/02/06 10:37:20;;;;;;;8.73;5.97;;;23.10;37.60;;;;;;6125008;28;80742;-54
2023/02/06 10:40:20;;;;;;;11.00;5.90;;;23.00;38.10;;;;;;6106763;28;80433;-55
2023/02/06 10:43:21;;;;;;;10.60;5.18;;;23.00;38.50;;;;;;6115793;28;80309;-55
2023/02/06 10:46:21;;;;;;;11.82;5.47;;;22.90;38.70;;;;;;6116060;28;80998;-56
2023/02/06 10:49:22;;;;;;;20.30;5.57;;;22.90;39.10;;;;;;6119553;28;84493;-58
2023/02/06 10:52:23;;;;;;;6.40;4.93;;;22.90;39.60;;;;;;6109116;28;80376;-55
2023/02/06 10:55:23;;;;;;;13.93;5.07;;;22.80;38.90;;;;;;6111405;28;81948;-56
2023/02/06 10:58:24;;;;;;;8.70;4.65;;;22.80;38.80;;;;;;6109329;28;83988;-58
2023/02/06 11:01:24;;;;;;;9.30;4.95;;;22.80;38.80;;;;;;6121149;28;87013;-53
2023/02/06 11:04:25;;;;;;;7.97;5.30;;;22.70;38.90;;;;;;6120713;28;83409;-55
2023/02/06 11:07:26;;;;;;;9.05;5.45;;;22.70;38.90;;;;;;6126063;28;81318;-53
2023/02/06 11:10:26;;;;;;;7.38;5.35;;;22.70;38.70;;;;;;6108754;28;80927;-54
2023/02/06 11:13:27;;;;;;;8.93;4.70;;;22.70;38.70;;;;;;6126931;28;80873;-55
2023/02/06 11:16:27;;;;;;;11.57;5.70;;;22.60;38.70;;;;;;6120880;28;80734;-58
2023/02/06 11:19:29;;;;;;;9.80;4.80;;;22.60;38.70;;;;;;6114517;28;80911;-54
2023/02/06 11:22:29;;;;;;;10.75;4.95;;;22.60;38.80;;;;;;6115992;28;80607;-55
2023/02/06 11:25:30;;;;;;;11.38;5.10;;;22.60;38.70;;;;;;6104730;28;80761;-56
2023/02/06 11:28:32;;;;;;;8.35;4.85;;;22.60;38.80;;;;;;6107669;28;80659;-55
2023/02/06 11:31:33;;;;;;;7.90;4.88;;;22.60;38.60;;;;;;6108697;28;81657;-55
2023/02/06 11:34:33;;;;;;;8.45;5.05;;;22.60;38.50;;;;;;6102967;28;82339;-57
2023/02/06 11:37:34;;;;;;;9.27;4.60;;;22.50;38.40;;;;;;6112273;28;82240;-55
2023/02/06 11:40:35;;;;;;;7.75;4.65;;;22.50;38.50;;;;;;6120680;28;82836;-57
2023/02/06 11:43:35;;;;;;;7.10;4.55;;;22.60;38.60;;;;;;6119456;28;81408;-59
2023/02/06 11:46:36;;;;;;;8.05;5.25;;;22.60;38.40;;;;;;6098971;28;85146;-57
2023/02/06 11:49:36;;;;;;;6.68;5.13;;;22.50;38.30;;;;;;6107416;28;80557;-55
2023/02/06 11:52:37;;;;;;;10.25;5.32;;;22.50;38.30;;;;;;6110051;28;82693;-57
2023/02/06 11:55:38;;;;;;;6.30;4.68;;;22.60;38.20;;;;;;6100136;28;80158;-57
2023/02/06 11:58:38;;;;;;;7.63;5.65;;;22.50;38.10;;;;;;6112236;28;81586;-55
2023/02/06 12:01:39;;;;;;;7.20;4.82;;;22.50;38.20;;;;;;6105985;28;80806;-54
2023/02/06 12:04:39;;;;;;;7.03;4.65;;;22.50;38.20;;;;;;6103600;28;80856;-54
2023/02/06 12:07:40;;;;;;;6.85;5.00;;;22.50;38.10;;;;;;6106253;28;81886;-56
2023/02/06 12:10:40;;;;;;;8.63;4.78;;;22.50;38.10;;;;;;6101963;28;82761;-55
2023/02/06 12:13:41;;;;;;;9.45;5.38;;;22.50;38.00;;;;;;6105942;28;84946;-54
2023/02/06 12:16:41;;;;;;;9.05;4.75;;;22.50;37.80;;;;;;6120718;28;81013;-54
2023/02/06 12:19:42;;;;;;;11.02;5.38;;;22.50;37.80;;;;;;6146464;28;81290;-54
2023/02/06 12:22:42;;;;;;;8.82;5.30;;;22.50;37.80;;;;;;6127671;28;80824;-57
2023/02/06 12:25:43;;;;;;;7.65;4.50;;;22.50;37.80;;;;;;6105163;28;80824;-56
2023/02/06 12:28:44;;;;;;;10.40;4.95;;;22.50;37.80;;;;;;6128208;28;81208;-53
2023/02/06 12:31:44;;;;;;;7.72;5.05;;;22.50;37.70;;;;;;6106697;28;80623;-47
2023/02/06 12:34:48;;;;;;;13.35;5.30;;;22.50;37.50;;;;;;6107090;28;80754;-48
2023/02/06 12:37:48;;;;;;;9.27;5.82;;;22.50;37.30;;;;;;6098569;28;82178;-50
2023/02/06 12:40:49;;;;;;;9.60;5.45;;;22.50;37.20;;;;;;6111249;28;80459;-50
2023/02/06 12:43:49;;;;;;;6.95;4.78;;;22.40;37.00;;;;;;6106747;28;80329;-53
2023/02/06 12:46:50;;;;;;;7.18;4.88;;;22.40;36.90;;;;;;6120829;28;81883;-55
2023/02/06 12:49:51;;;;;;;9.25;4.50;;;22.50;36.80;;;;;;6113853;28;80286;-55
2023/02/06 12:52:51;;;;;;;7.90;5.30;;;22.50;36.70;;;;;;6117796;28;82250;-56
2023/02/06 12:55:52;;;;;;;9.13;5.65;;;22.50;36.60;;;;;;6118670;28;80404;-55
2023/02/06 12:58:52;;;;;;;7.40;5.00;;;22.50;36.70;;;;;;6111335;28;80142;-56
2023/02/06 13:01:53;;;;;;;7.63;4.88;;;22.40;37.20;;;;;;6114115;28;87396;-57
2023/02/06 13:04:53;;;;;;;13.50;4.60;;;22.50;36.70;;;;;;6115883;28;84466;-57
2023/02/06 13:07:54;;;;;;;6.10;3.97;;;22.50;36.80;;;;;;6113180;28;81809;-55
2023/02/06 13:10:54;;;;;;;9.30;4.78;;;22.50;37.10;;;;;;6119805;28;80804;-58
2023/02/06 13:13:57;;;;;;;6.30;4.05;;;22.50;37.80;;;;;;6121139;28;80906;-57
2023/02/06 13:16:57;;;;;;;8.15;4.43;;;22.50;36.90;;;;;;6114639;28;81636;-57
2023/02/06 13:19:58;;;;;;;6.07;3.95;;;22.50;36.70;;;;;;6115181;28;81841;-56
2023/02/06 13:22:58;;;;;;;6.57;4.53;;;22.50;36.50;;;;;;6114039;28;81485;-59
2023/02/06 13:26:01;;;;;;;6.82;4.35;;;22.50;36.20;;;;;;6116574;28;80426;-61
2023/02/06 13:29:01;;;;;;;7.32;4.78;;;22.50;36.40;;;;;;6129710;28;85767;-59
2023/02/06 13:32:02;;;;;;;9.63;4.38;;;22.50;36.30;;;;;;6115023;28;81947;-58
2023/02/06 13:35:03;;;;;;;7.82;4.00;;;22.50;36.00;;;;;;6120727;28;80152;-58
2023/02/06 13:38:03;;;;;;;7.10;4.50;;;22.50;35.90;;;;;;6109218;28;87728;-59
2023/02/06 13:41:04;;;;;;;7.18;4.20;;;22.50;34.80;;;;;;6121255;28;80269;-59
2023/02/06 13:44:05;;;;;;;12.13;4.55;;;22.60;34.90;;;;;;6122347;28;82235;-59
2023/02/06 13:47:07;;;;;;;7.07;4.45;;;22.60;35.00;;;;;;6124100;28;80996;-59
2023/02/06 13:50:07;;;;;;;8.98;4.72;;;22.50;34.90;;;;;;6113077;28;80455;-58
2023/02/06 13:53:08;;;;;;;5.85;4.18;;;22.50;35.00;;;;;;6140678;28;81678;-58
2023/02/06 13:56:09;;;;;;;6.18;4.35;;;22.50;34.80;;;;;;6125456;28;82027;-58
2023/02/06 13:59:09;;;;;;;5.57;4.40;;;22.50;34.80;;;;;;6119029;28;80447;-59
2023/02/06 14:02:10;;;;;;;11.55;4.68;;;22.50;34.30;;;;;;6122805;28;80391;-58
2023/02/06 14:05:10;;;;;;;7.60;4.07;;;22.50;34.40;;;;;;6116906;28;85331;-58
2023/02/06 14:08:11;;;;;;;9.55;4.80;;;22.50;34.00;;;;;;6119753;28;85480;-58
2023/02/06 14:14:31;;;;;;;6.30;4.60;;;22.50;33.60;;;;;;6129441;28;86458;-57
2023/02/06 14:17:31;;;;;;;8.73;4.90;;;22.40;33.40;;;;;;6124819;28;80579;-57
2023/02/06 14:20:32;;;;;;;6.30;4.70;;;22.50;33.40;;;;;;6117342;28;80638;-62
2023/02/06 14:23:32;;;;;;;7.50;5.20;;;22.40;33.30;;;;;;6123931;28;80598;-60
2023/02/06 14:26:33;;;;;;;6.07;4.80;;;22.40;32.90;;;;;;6123582;28;83418;-61
2023/02/06 14:29:33;;;;;;;7.85;4.90;;;22.40;32.70;;;;;;6116405;28;81478;-58
2023/02/06 14:32:34;;;;;;;6.70;4.85;;;22.40;32.60;;;;;;6106185;28;80542;-60
2023/02/06 14:35:34;;;;;;;7.30;5.18;;;22.50;32.90;;;;;;6113796;28;80814;-59
2023/02/06 14:38:35;;;;;;;9.73;5.47;;;22.50;32.80;;;;;;6108659;28;80860;-62
2023/02/06 14:41:38;;;;;;;7.50;4.75;;;22.60;32.70;;;;;;6117060;28;80901;-64
2023/02/06 14:44:38;;;;;;;7.93;5.57;;;22.60;32.70;;;;;;6121799;28;81553;-59
2023/02/06 14:47:41;;;;;;;9.32;4.90;;;22.60;32.60;;;;;;6135505;28;82221;-62
2023/02/06 14:50:42;;;;;;;8.45;5.45;;;22.60;32.60;;;;;;6127190;28;80109;-60
2023/02/06 14:53:42;;;;;;;9.32;5.03;;;22.60;32.70;;;;;;6116483;28;80639;-59
2023/02/06 14:56:43;;;;;;;9.35;5.30;;;22.70;33.00;;;;;;6110662;28;82094;-59
2023/02/06 14:59:43;;;;;;;9.70;5.70;;;22.80;33.20;;;;;;6106422;28;81743;-61
2023/02/06 15:02:44;;;;;;;6.80;4.50;;;22.90;33.30;;;;;;6111125;28;80358;-60
2023/02/06 15:05:45;;;;;;;8.95;5.45;;;23.00;33.50;;;;;;6106072;28;80881;-59
2023/02/06 15:08:46;;;;;;;8.00;5.20;;;23.10;34.00;;;;;;6113875;28;82681;-61
2023/02/06 15:11:46;;;;;;;6.97;4.50;;;23.20;33.90;;;;;;6111548;28;81286;-60
2023/02/06 15:14:47;;;;;;;11.00;5.13;;;23.20;33.60;;;;;;6122907;28;81841;-60
2023/02/06 15:17:47;;;;;;;52.70;24.75;;;23.20;33.50;;;;;;6123464;28;80980;-60
2023/02/06 15:20:48;;;;;;;100.50;46.13;;;23.20;33.90;;;;;;6107450;28;96079;-59
2023/02/06 15:23:48;;;;;;;152.45;71.03;;;23.20;34.10;;;;;;6119133;28;84052;-58
2023/02/06 15:26:49;;;;;;;203.60;92.68;;;23.20;34.10;;;;;;6124148;28;86427;-59
2023/02/06 15:29:49;;;;;;;278.85;122.97;;;23.20;34.50;;;;;;6123054;28;83509;-59
2023/02/06 15:32:50;;;;;;;342.83;146.00;;;23.20;35.30;;;;;;6116549;28;85580;-59